Terminal Aerodrome Forecast
Issued by NWS

Home | Current Version | Previous Version | Text Only | Print | Product List | Glossary On
Versions: 1 2 3 4 5 6 7 8 9 10 11 12 13
163
FTUS45 KRIW 220522
TAFBPI
TAF
KBPI 220522Z 2206/2306 VRB06KT P6SM SKC
     FM221800 27011KT P6SM SKC
     FM222000 30015G25KT P6SM FEW110
     FM230100 33009KT P6SM FEW110=

USA.gov is the U.S. government's official web portal to all federal, state and local government web resources and services.